sensor_id;sensor_type;location;lat;lon;timestamp;pressure;altitude;pressure_sealevel;temperature;humidity
69245;BME280;56357;52.304;4.870;2022-08-01T00:01:48;101888.50;;;22.72;64.81
69245;BME280;56357;52.304;4.870;2022-08-01T00:04:15;101884.81;;;22.71;65.12
69245;BME280;56357;52.304;4.870;2022-08-01T00:06:41;101887.34;;;22.73;65.00
69245;BME280;56357;52.304;4.870;2022-08-01T00:09:08;101899.50;;;22.73;64.88
69245;BME280;56357;52.304;4.870;2022-08-01T00:11:34;101896.97;;;22.72;64.91
69245;BME280;56357;52.304;4.870;2022-08-01T00:14:00;101898.66;;;22.73;65.02
69245;BME280;56357;52.304;4.870;2022-08-01T00:16:27;101900.91;;;22.71;65.22
69245;BME280;56357;52.304;4.870;2022-08-01T00:18:53;101891.31;;;22.72;65.19
69245;BME280;56357;52.304;4.870;2022-08-01T00:21:20;101906.31;;;22.73;65.33
69245;BME280;56357;52.304;4.870;2022-08-01T00:23:46;101898.94;;;22.71;65.31
69245;BME280;56357;52.304;4.870;2022-08-01T00:26:13;101905.75;;;22.70;65.31
69245;BME280;56357;52.304;4.870;2022-08-01T00:28:40;101904.88;;;22.70;65.18
69245;BME280;56357;52.304;4.870;2022-08-01T00:31:07;101909.38;;;22.71;65.12
69245;BME280;56357;52.304;4.870;2022-08-01T00:33:33;101902.06;;;22.70;65.00
69245;BME280;56357;52.304;4.870;2022-08-01T00:36:00;101910.53;;;22.70;65.15
69245;BME280;56357;52.304;4.870;2022-08-01T00:38:26;101909.69;;;22.69;64.84
69245;BME280;56357;52.304;4.870;2022-08-01T00:40:52;101906.84;;;22.69;65.34
69245;BME280;56357;52.304;4.870;2022-08-01T00:43:19;101910.53;;;22.70;65.32
69245;BME280;56357;52.304;4.870;2022-08-01T00:45:45;101908.81;;;22.69;65.45
69245;BME280;56357;52.304;4.870;2022-08-01T00:48:12;101909.97;;;22.68;65.35
69245;BME280;56357;52.304;4.870;2022-08-01T00:50:38;101916.72;;;22.67;65.57
69245;BME280;56357;52.304;4.870;2022-08-01T00:53:05;101915.06;;;22.66;65.29
69245;BME280;56357;52.304;4.870;2022-08-01T00:55:32;101919.84;;;22.65;65.18
69245;BME280;56357;52.304;4.870;2022-08-01T00:57:58;101921.81;;;22.65;65.32
69245;BME280;56357;52.304;4.870;2022-08-01T01:00:25;101921.28;;;22.63;65.30
69245;BME280;56357;52.304;4.870;2022-08-01T01:02:52;101930.59;;;22.63;65.50
69245;BME280;56357;52.304;4.870;2022-08-01T01:05:19;101924.38;;;22.61;65.41
69245;BME280;56357;52.304;4.870;2022-08-01T01:08:02;101929.47;;;22.64;65.52
69245;BME280;56357;52.304;4.870;2022-08-01T01:16:00;101923.56;;;22.61;65.27
69245;BME280;56357;52.304;4.870;2022-08-01T01:18:35;101919.03;;;22.60;65.20
69245;BME280;56357;52.304;4.870;2022-08-01T01:27:01;101918.47;;;22.58;65.30
69245;BME280;56357;52.304;4.870;2022-08-01T01:29:36;101915.63;;;22.58;65.55
69245;BME280;56357;52.304;4.870;2022-08-01T01:32:16;101904.88;;;22.55;65.14
69245;BME280;56357;52.304;4.870;2022-08-01T01:34:46;101920.69;;;22.56;64.93
69245;BME280;56357;52.304;4.870;2022-08-01T01:37:16;101911.34;;;22.55;65.29
69245;BME280;56357;52.304;4.870;2022-08-01T01:39:44;101922.94;;;22.54;65.21
69245;BME280;56357;52.304;4.870;2022-08-01T01:42:13;101919.00;;;22.55;65.22
69245;BME280;56357;52.304;4.870;2022-08-01T01:44:43;101914.47;;;22.54;64.81
69245;BME280;56357;52.304;4.870;2022-08-01T01:47:12;101923.25;;;22.52;65.17
69245;BME280;56357;52.304;4.870;2022-08-01T01:49:39;101923.53;;;22.51;65.45
69245;BME280;56357;52.304;4.870;2022-08-01T01:52:08;101917.59;;;22.52;64.77
69245;BME280;56357;52.304;4.870;2022-08-01T01:54:39;101916.75;;;22.52;65.29
69245;BME280;56357;52.304;4.870;2022-08-01T01:57:06;101920.72;;;22.51;65.21
69245;BME280;56357;52.304;4.870;2022-08-01T01:59:35;101926.91;;;22.48;64.98
69245;BME280;56357;52.304;4.870;2022-08-01T02:02:03;101925.50;;;22.50;65.10
69245;BME280;56357;52.304;4.870;2022-08-01T02:04:32;101920.72;;;22.51;65.26
69245;BME280;56357;52.304;4.870;2022-08-01T02:07:00;101927.47;;;22.50;64.84
69245;BME280;56357;52.304;4.870;2022-08-01T02:09:28;101923.25;;;22.47;65.23
69245;BME280;56357;52.304;4.870;2022-08-01T02:11:55;101924.94;;;22.48;65.01
69245;BME280;56357;52.304;4.870;2022-08-01T02:14:24;101928.06;;;22.47;65.16
69245;BME280;56357;52.304;4.870;2022-08-01T02:16:54;101923.81;;;22.44;65.32
69245;BME280;56357;52.304;4.870;2022-08-01T02:19:24;101926.34;;;22.46;64.69
69245;BME280;56357;52.304;4.870;2022-08-01T02:22:11;101924.66;;;22.45;65.43
69245;BME280;56357;52.304;4.870;2022-08-01T02:24:57;101933.97;;;22.45;65.15
69245;BME280;56357;52.304;4.870;2022-08-01T02:27:33;101930.88;;;22.47;65.20
69245;BME280;56357;52.304;4.870;2022-08-01T02:30:03;101932.56;;;22.43;65.40
69245;BME280;56357;52.304;4.870;2022-08-01T02:32:34;101935.97;;;22.45;65.28
69245;BME280;56357;52.304;4.870;2022-08-01T02:35:04;101930.84;;;22.42;65.50
69245;BME280;56357;52.304;4.870;2022-08-01T02:37:34;101929.44;;;22.44;65.23
69245;BME280;56357;52.304;4.870;2022-08-01T02:40:04;101926.91;;;22.43;65.34
69245;BME280;56357;52.304;4.870;2022-08-01T02:42:34;101930.84;;;22.42;65.46
69245;BME280;56357;52.304;4.870;2022-08-01T02:45:03;101937.66;;;22.41;65.43
69245;BME280;56357;52.304;4.870;2022-08-01T02:47:32;101937.09;;;22.39;65.33
69245;BME280;56357;52.304;4.870;2022-08-01T02:49:59;101928.06;;;22.37;65.71
69245;BME280;56357;52.304;4.870;2022-08-01T02:52:28;101927.19;;;22.36;65.46
69245;BME280;56357;52.304;4.870;2022-08-01T02:54:56;101921.00;;;22.34;65.52
69245;BME280;56357;52.304;4.870;2022-08-01T02:57:24;101928.91;;;22.37;65.26
69245;BME280;56357;52.304;4.870;2022-08-01T02:59:53;101923.25;;;22.37;65.27
69245;BME280;56357;52.304;4.870;2022-08-01T03:02:22;101927.19;;;22.36;65.30
69245;BME280;56357;52.304;4.870;2022-08-01T03:04:50;101920.72;;;22.36;65.21
69245;BME280;56357;52.304;4.870;2022-08-01T03:07:18;101926.09;;;22.37;65.35
69245;BME280;56357;52.304;4.870;2022-08-01T03:09:47;101923.81;;;22.34;65.18
69245;BME280;56357;52.304;4.870;2022-08-01T03:12:23;101932.56;;;22.33;65.34
69245;BME280;56357;52.304;4.870;2022-08-01T03:14:53;101932.56;;;22.33;65.44
69245;BME280;56357;52.304;4.870;2022-08-01T03:17:23;101930.31;;;22.30;65.39
69245;BME280;56357;52.304;4.870;2022-08-01T03:19:52;101942.75;;;22.34;65.38
69245;BME280;56357;52.304;4.870;2022-08-01T03:22:21;101947.81;;;22.32;65.22
69245;BME280;56357;52.304;4.870;2022-08-01T03:24:52;101943.28;;;22.31;65.40
69245;BME280;56357;52.304;4.870;2022-08-01T03:27:19;101942.19;;;22.32;65.41
69245;BME280;56357;52.304;4.870;2022-08-01T03:29:48;101947.81;;;22.32;65.26
69245;BME280;56357;52.304;4.870;2022-08-01T03:32:18;101939.34;;;22.32;65.52
69245;BME280;56357;52.304;4.870;2022-08-01T03:34:46;101944.44;;;22.30;65.24
69245;BME280;56357;52.304;4.870;2022-08-01T03:37:38;101948.94;;;22.31;65.42
69245;BME280;56357;52.304;4.870;2022-08-01T03:42:53;101954.28;;;22.32;65.41
69245;BME280;56357;52.304;4.870;2022-08-01T03:45:25;101952.34;;;22.28;65.31
69245;BME280;56357;52.304;4.870;2022-08-01T03:48:00;101953.75;;;22.30;65.43
69245;BME280;56357;52.304;4.870;2022-08-01T03:50:28;101953.19;;;22.28;65.28
69245;BME280;56357;52.304;4.870;2022-08-01T03:52:57;101953.19;;;22.28;65.47
69245;BME280;56357;52.304;4.870;2022-08-01T03:55:25;101957.97;;;22.28;65.41
69245;BME280;56357;52.304;4.870;2022-08-01T03:57:52;101960.81;;;22.28;65.51
69245;BME280;56357;52.304;4.870;2022-08-01T04:00:19;101956.84;;;22.29;65.43
69245;BME280;56357;52.304;4.870;2022-08-01T04:02:47;101957.97;;;22.28;65.68
69245;BME280;56357;52.304;4.870;2022-08-01T04:05:15;101969.28;;;22.28;65.11
69245;BME280;56357;52.304;4.870;2022-08-01T04:07:46;101964.75;;;22.27;65.46
69245;BME280;56357;52.304;4.870;2022-08-01T04:10:15;101959.94;;;22.27;65.37
69245;BME280;56357;52.304;4.870;2022-08-01T04:12:42;101958.53;;;22.25;65.30
69245;BME280;56357;52.304;4.870;2022-08-01T04:15:08;101963.63;;;22.28;65.35
69245;BME280;56357;52.304;4.870;2022-08-01T04:17:35;101959.94;;;22.27;65.14
69245;BME280;56357;52.304;4.870;2022-08-01T04:20:02;101956.84;;;22.29;65.19
69245;BME280;56357;52.304;4.870;2022-08-01T04:22:28;101955.16;;;22.28;65.36
69245;BME280;56357;52.304;4.870;2022-08-01T04:24:57;101954.03;;;22.29;65.15
69245;BME280;56357;52.304;4.870;2022-08-01T04:27:30;101961.38;;;22.30;64.87
69245;BME280;56357;52.304;4.870;2022-08-01T04:29:58;101962.22;;;22.30;64.99
69245;BME280;56357;52.304;4.870;2022-08-01T04:32:27;101963.63;;;22.33;64.72
69245;BME280;56357;52.304;4.870;2022-08-01T04:34:56;101967.28;;;22.33;64.79
69245;BME280;56357;52.304;4.870;2022-08-01T04:37:25;101962.78;;;22.37;64.53
69245;BME280;56357;52.304;4.870;2022-08-01T04:39:52;101965.03;;;22.40;64.62
69245;BME280;56357;52.304;4.870;2022-08-01T04:42:21;101978.31;;;22.45;64.57
69245;BME280;56357;52.304;4.870;2022-08-01T04:44:47;101976.59;;;22.49;64.31
69245;BME280;56357;52.304;4.870;2022-08-01T04:47:14;101979.41;;;22.44;64.52
69245;BME280;56357;52.304;4.870;2022-08-01T04:49:41;101988.75;;;22.49;64.68
69245;BME280;56357;52.304;4.870;2022-08-01T04:52:11;101984.22;;;22.48;64.88
69245;BME280;56357;52.304;4.870;2022-08-01T04:54:37;101980.84;;;22.46;65.05
69245;BME280;56357;52.304;4.870;2022-08-01T04:57:04;101986.19;;;22.48;64.89
69245;BME280;56357;52.304;4.870;2022-08-01T04:59:35;101996.06;;;22.50;65.04
69245;BME280;56357;52.304;4.870;2022-08-01T05:02:18;101998.06;;;22.55;64.84
69245;BME280;56357;52.304;4.870;2022-08-01T05:04:46;101992.16;;;22.51;65.01
69245;BME280;56357;52.304;4.870;2022-08-01T05:07:12;101994.97;;;22.56;64.68
69245;BME280;56357;52.304;4.870;2022-08-01T05:09:40;102005.44;;;22.61;64.67
69245;BME280;56357;52.304;4.870;2022-08-01T05:12:08;101999.75;;;22.56;64.86
69245;BME280;56357;52.304;4.870;2022-08-01T05:14:36;101995.56;;;22.58;64.43
69245;BME280;56357;52.304;4.870;2022-08-01T05:17:04;101994.69;;;22.68;64.06
69245;BME280;56357;52.304;4.870;2022-08-01T05:19:32;101991.88;;;22.68;64.13
69245;BME280;56357;52.304;4.870;2022-08-01T05:22:00;101988.75;;;22.69;63.34
69245;BME280;56357;52.304;4.870;2022-08-01T05:24:29;101991.84;;;22.73;63.56
69245;BME280;56357;52.304;4.870;2022-08-01T05:26:56;101993.84;;;22.78;63.39
69245;BME280;56357;52.304;4.870;2022-08-01T05:29:24;101997.22;;;22.80;63.40
69245;BME280;56357;52.304;4.870;2022-08-01T05:31:51;102000.34;;;22.78;63.26
69245;BME280;56357;52.304;4.870;2022-08-01T05:34:17;101998.66;;;22.72;63.93
69245;BME280;56357;52.304;4.870;2022-08-01T05:36:44;102000.31;;;22.73;63.65
69245;BME280;56357;52.304;4.870;2022-08-01T05:39:11;101996.94;;;22.71;63.97
69245;BME280;56357;52.304;4.870;2022-08-01T05:41:38;102004.84;;;22.74;63.79
69245;BME280;56357;52.304;4.870;2022-08-01T05:44:05;102013.31;;;22.74;63.90
69245;BME280;56357;52.304;4.870;2022-08-01T05:46:31;102015.00;;;22.75;64.20
69245;BME280;56357;52.304;4.870;2022-08-01T05:48:59;102021.81;;;22.84;63.86
69245;BME280;56357;52.304;4.870;2022-08-01T05:51:25;102018.97;;;22.84;63.35
69245;BME280;56357;52.304;4.870;2022-08-01T05:53:52;102029.13;;;22.85;63.60
69245;BME280;56357;52.304;4.870;2022-08-01T05:56:20;102031.97;;;22.80;63.25
69245;BME280;56357;52.304;4.870;2022-08-01T05:58:47;102030.81;;;22.81;63.38
69245;BME280;56357;52.304;4.870;2022-08-01T06:01:14;102037.63;;;22.80;63.70
69245;BME280;56357;52.304;4.870;2022-08-01T06:03:41;102040.16;;;22.71;63.95
69245;BME280;56357;52.304;4.870;2022-08-01T06:06:07;102033.66;;;22.66;63.79
69245;BME280;56357;52.304;4.870;2022-08-01T06:08:33;102037.59;;;22.65;64.11
69245;BME280;56357;52.304;4.870;2022-08-01T06:11:00;102036.19;;;22.67;63.76
69245;BME280;56357;52.304;4.870;2022-08-01T06:13:27;102031.09;;;22.74;63.34
69245;BME280;56357;52.304;4.870;2022-08-01T06:15:53;102037.88;;;22.89;62.75
69245;BME280;56357;52.304;4.870;2022-08-01T06:18:20;102047.78;;;22.91;62.88
69245;BME280;56357;52.304;4.870;2022-08-01T06:20:46;102051.72;;;22.90;63.17
69245;BME280;56357;52.304;4.870;2022-08-01T06:23:14;102046.06;;;22.85;63.00
69245;BME280;56357;52.304;4.870;2022-08-01T06:25:41;102041.56;;;22.79;62.75
69245;BME280;56357;52.304;4.870;2022-08-01T06:28:08;102048.63;;;22.77;62.96
69245;BME280;56357;52.304;4.870;2022-08-01T06:30:34;102056.25;;;22.76;62.49
69245;BME280;56357;52.304;4.870;2022-08-01T06:33:01;102059.66;;;22.78;62.34
69245;BME280;56357;52.304;4.870;2022-08-01T06:35:28;102052.28;;;22.87;62.12
69245;BME280;56357;52.304;4.870;2022-08-01T06:37:55;102063.00;;;23.00;61.17
69245;BME280;56357;52.304;4.870;2022-08-01T06:40:22;102061.31;;;22.99;60.75
69245;BME280;56357;52.304;4.870;2022-08-01T06:42:49;102071.47;;;23.10;61.19
69245;BME280;56357;52.304;4.870;2022-08-01T06:45:16;102064.69;;;23.11;60.89
69245;BME280;56357;52.304;4.870;2022-08-01T06:47:44;102072.59;;;23.09;60.81
69245;BME280;56357;52.304;4.870;2022-08-01T06:50:11;102081.09;;;23.04;60.89
69245;BME280;56357;52.304;4.870;2022-08-01T06:52:39;102078.28;;;22.99;60.63
69245;BME280;56357;52.304;4.870;2022-08-01T06:55:05;102090.13;;;22.86;61.07
69245;BME280;56357;52.304;4.870;2022-08-01T06:57:32;102077.41;;;22.79;60.53
69245;BME280;56357;52.304;4.870;2022-08-01T07:00:02;102083.94;;;22.79;60.89
69245;BME280;56357;52.304;4.870;2022-08-01T07:02:29;102080.81;;;22.81;60.61
69245;BME280;56357;52.304;4.870;2022-08-01T07:04:55;102085.06;;;22.78;61.58
69245;BME280;56357;52.304;4.870;2022-08-01T07:07:25;102078.00;;;22.81;60.60
69245;BME280;56357;52.304;4.870;2022-08-01T07:09:51;102081.09;;;22.79;60.97
69245;BME280;56357;52.304;4.870;2022-08-01T07:12:18;102082.53;;;22.92;61.59
69245;BME280;56357;52.304;4.870;2022-08-01T07:14:44;102076.03;;;22.91;60.38
69245;BME280;56357;52.304;4.870;2022-08-01T07:17:11;102073.75;;;22.88;60.31
69245;BME280;56357;52.304;4.870;2022-08-01T07:19:37;102076.56;;;22.88;60.01
69245;BME280;56357;52.304;4.870;2022-08-01T07:22:03;102073.19;;;22.81;61.06
69245;BME280;56357;52.304;4.870;2022-08-01T07:24:30;102076.84;;;22.87;60.48
69245;BME280;56357;52.304;4.870;2022-08-01T07:26:56;102074.88;;;22.87;60.12
69245;BME280;56357;52.304;4.870;2022-08-01T07:29:24;102079.13;;;22.95;59.88
69245;BME280;56357;52.304;4.870;2022-08-01T07:31:53;102079.41;;;23.03;59.66
69245;BME280;56357;52.304;4.870;2022-08-01T07:34:21;102082.44;;;23.27;59.94
69245;BME280;56357;52.304;4.870;2022-08-01T07:36:47;102082.75;;;23.35;59.32
69245;BME280;56357;52.304;4.870;2022-08-01T07:39:14;102092.91;;;23.36;58.99
69245;BME280;56357;52.304;4.870;2022-08-01T07:41:40;102096.28;;;23.48;58.99
69245;BME280;56357;52.304;4.870;2022-08-01T07:44:07;102101.34;;;23.61;58.71
69245;BME280;56357;52.304;4.870;2022-08-01T07:46:33;102107.53;;;23.74;58.70
69245;BME280;56357;52.304;4.870;2022-08-01T07:49:00;102104.09;;;23.82;58.01
69245;BME280;56357;52.304;4.870;2022-08-01T07:51:26;102111.13;;;23.89;56.85
69245;BME280;56357;52.304;4.870;2022-08-01T07:53:52;102104.88;;;23.92;57.84
69245;BME280;56357;52.304;4.870;2022-08-01T07:56:19;102114.28;;;23.88;56.88
69245;BME280;56357;52.304;4.870;2022-08-01T07:58:45;102112.56;;;23.87;57.45
69245;BME280;56357;52.304;4.870;2022-08-01T08:01:13;102111.94;;;24.00;56.77
69245;BME280;56357;52.304;4.870;2022-08-01T08:03:39;102104.31;;;23.95;57.00
69245;BME280;56357;52.304;4.870;2022-08-01T08:06:06;102110.25;;;23.99;57.33
69245;BME280;56357;52.304;4.870;2022-08-01T08:08:32;102108.81;;;24.06;57.31
69245;BME280;56357;52.304;4.870;2022-08-01T08:10:59;102111.97;;;24.05;56.66
69245;BME280;56357;52.304;4.870;2022-08-01T08:13:26;102112.22;;;24.08;56.42
69245;BME280;56357;52.304;4.870;2022-08-01T08:15:52;102106.25;;;24.10;56.09
69245;BME280;56357;52.304;4.870;2022-08-01T08:18:19;102112.38;;;24.32;57.04
69245;BME280;56357;52.304;4.870;2022-08-01T08:20:45;102112.88;;;24.39;55.70
69245;BME280;56357;52.304;4.870;2022-08-01T08:23:12;102121.13;;;24.35;55.82
69245;BME280;56357;52.304;4.870;2022-08-01T08:25:56;102124.75;;;24.41;56.71
69245;BME280;56357;52.304;4.870;2022-08-01T08:28:22;102127.53;;;24.51;55.56
69245;BME280;56357;52.304;4.870;2022-08-01T08:30:49;102130.63;;;24.55;56.11
69245;BME280;56357;52.304;4.870;2022-08-01T08:33:15;102116.75;;;24.53;55.56
69245;BME280;56357;52.304;4.870;2022-08-01T08:35:42;102124.72;;;24.51;55.15
69245;BME280;56357;52.304;4.870;2022-08-01T08:38:08;102130.63;;;24.49;55.26
69245;BME280;56357;52.304;4.870;2022-08-01T08:40:36;102129.25;;;24.47;54.97
69245;BME280;56357;52.304;4.870;2022-08-01T08:43:04;102129.72;;;24.59;54.56
69245;BME280;56357;52.304;4.870;2022-08-01T08:45:32;102125.75;;;24.60;54.62
69245;BME280;56357;52.304;4.870;2022-08-01T08:47:59;102137.34;;;24.64;54.83
69245;BME280;56357;52.304;4.870;2022-08-01T08:50:27;102128.53;;;24.70;54.30
69245;BME280;56357;52.304;4.870;2022-08-01T08:52:54;102138.34;;;24.88;54.17
69245;BME280;56357;52.304;4.870;2022-08-01T08:55:22;102142.00;;;24.88;53.86
69245;BME280;56357;52.304;4.870;2022-08-01T08:57:49;102136.88;;;24.95;55.09
69245;BME280;56357;52.304;4.870;2022-08-01T09:00:16;102144.53;;;24.90;53.99
69245;BME280;56357;52.304;4.870;2022-08-01T09:02:44;102143.16;;;24.87;53.71
69245;BME280;56357;52.304;4.870;2022-08-01T09:05:12;102148.53;;;24.89;53.81
69245;BME280;56357;52.304;4.870;2022-08-01T09:07:38;102146.50;;;24.94;53.14
69245;BME280;56357;52.304;4.870;2022-08-01T09:10:06;102148.75;;;24.97;52.93
69245;BME280;56357;52.304;4.870;2022-08-01T09:12:35;102145.63;;;24.99;53.03
69245;BME280;56357;52.304;4.870;2022-08-01T09:15:03;102151.66;;;25.21;53.08
69245;BME280;56357;52.304;4.870;2022-08-01T09:17:39;102149.44;;;25.13;52.00
69245;BME280;56357;52.304;4.870;2022-08-01T09:20:06;102148.25;;;25.19;51.37
69245;BME280;56357;52.304;4.870;2022-08-01T09:22:33;102148.78;;;25.26;51.68
69245;BME280;56357;52.304;4.870;2022-08-01T09:27:28;102144.34;;;25.44;51.32
69245;BME280;56357;52.304;4.870;2022-08-01T09:30:09;102153.16;;;25.47;51.75
69245;BME280;56357;52.304;4.870;2022-08-01T09:33:00;102165.13;;;25.39;51.66
69245;BME280;56357;52.304;4.870;2022-08-01T09:35:28;102164.56;;;25.37;51.63
69245;BME280;56357;52.304;4.870;2022-08-01T09:38:14;102157.22;;;25.31;51.79
69245;BME280;56357;52.304;4.870;2022-08-01T09:40:55;102159.19;;;25.35;51.46
69245;BME280;56357;52.304;4.870;2022-08-01T09:43:24;102171.59;;;25.45;51.41
69245;BME280;56357;52.304;4.870;2022-08-01T09:45:51;102165.31;;;25.48;50.92
69245;BME280;56357;52.304;4.870;2022-08-01T09:48:18;102170.44;;;25.46;50.75
69245;BME280;56357;52.304;4.870;2022-08-01T09:50:47;102169.00;;;25.48;50.45
69245;BME280;56357;52.304;4.870;2022-08-01T09:53:15;102175.78;;;25.52;50.80
69245;BME280;56357;52.304;4.870;2022-08-01T09:55:43;102174.03;;;25.56;51.14
69245;BME280;56357;52.304;4.870;2022-08-01T09:58:10;102169.00;;;25.48;51.08
69245;BME280;56357;52.304;4.870;2022-08-01T10:00:37;102168.66;;;25.55;52.35
69245;BME280;56357;52.304;4.870;2022-08-01T10:03:19;102173.25;;;25.51;50.95
69245;BME280;56357;52.304;4.870;2022-08-01T10:05:46;102176.56;;;25.58;51.09
69245;BME280;56357;52.304;4.870;2022-08-01T10:08:13;102173.63;;;25.68;50.70
69245;BME280;56357;52.304;4.870;2022-08-01T10:10:40;102174.97;;;25.75;51.91
69245;BME280;56357;52.304;4.870;2022-08-01T10:13:08;102178.09;;;25.74;50.79
69245;BME280;56357;52.304;4.870;2022-08-01T10:15:35;102180.41;;;25.72;50.39
69245;BME280;56357;52.304;4.870;2022-08-01T10:18:04;102175.91;;;25.66;50.25
69245;BME280;56357;52.304;4.870;2022-08-01T10:20:33;102173.94;;;25.66;49.86
69245;BME280;56357;52.304;4.870;2022-08-01T10:23:02;102174.47;;;25.68;50.08
69245;BME280;56357;52.304;4.870;2022-08-01T10:25:34;102182.81;;;25.83;50.53
69245;BME280;56357;52.304;4.870;2022-08-01T10:28:05;102177.38;;;25.87;49.98
69245;BME280;56357;52.304;4.870;2022-08-01T10:30:35;102181.00;;;25.92;51.85
69245;BME280;56357;52.304;4.870;2022-08-01T10:33:02;102181.25;;;25.96;50.92
69245;BME280;56357;52.304;4.870;2022-08-01T10:35:29;102183.53;;;25.94;51.32
69245;BME280;56357;52.304;4.870;2022-08-01T10:37:56;102177.56;;;25.95;50.11
69245;BME280;56357;52.304;4.870;2022-08-01T10:40:23;102176.34;;;26.06;50.89
69245;BME280;56357;52.304;4.870;2022-08-01T10:42:51;102179.41;;;26.10;51.15
69245;BME280;56357;52.304;4.870;2022-08-01T10:45:18;102184.31;;;25.99;50.17
69245;BME280;56357;52.304;4.870;2022-08-01T10:48:02;102182.41;;;25.95;50.08
69245;BME280;56357;52.304;4.870;2022-08-01T10:50:44;102190.31;;;25.98;49.96
69245;BME280;56357;52.304;4.870;2022-08-01T10:53:14;102186.47;;;26.12;50.18
69245;BME280;56357;52.304;4.870;2022-08-01T10:56:01;102185.16;;;26.00;49.82
69245;BME280;56357;52.304;4.870;2022-08-01T11:03:38;102189.88;;;26.14;50.94
69245;BME280;56357;52.304;4.870;2022-08-01T11:06:05;102190.53;;;26.06;49.08
69245;BME280;56357;52.304;4.870;2022-08-01T11:08:36;102197.53;;;26.14;50.72
69245;BME280;56357;52.304;4.870;2022-08-01T11:11:03;102206.28;;;26.17;50.24
69245;BME280;56357;52.304;4.870;2022-08-01T11:14:04;102194.81;;;26.27;49.83
69245;BME280;56357;52.304;4.870;2022-08-01T11:16:36;102204.53;;;26.21;48.93
69245;BME280;56357;52.304;4.870;2022-08-01T11:19:05;102202.28;;;26.18;48.41
69245;BME280;56357;52.304;4.870;2022-08-01T11:27:27;102209.91;;;26.23;48.15
69245;BME280;56357;52.304;4.870;2022-08-01T11:30:23;102202.78;;;26.25;48.34
69245;BME280;56357;52.304;4.870;2022-08-01T11:32:53;102199.13;;;26.44;49.45
69245;BME280;56357;52.304;4.870;2022-08-01T11:35:21;102189.38;;;26.50;49.53
69245;BME280;56357;52.304;4.870;2022-08-01T11:37:49;102196.22;;;26.49;49.55
69245;BME280;56357;52.304;4.870;2022-08-01T11:40:21;102198.75;;;26.50;49.04
69245;BME280;56357;52.304;4.870;2022-08-01T11:42:49;102204.34;;;26.55;48.73
69245;BME280;56357;52.304;4.870;2022-08-01T11:45:16;102202.06;;;26.57;47.98
69245;BME280;56357;52.304;4.870;2022-08-01T11:47:44;102201.16;;;26.62;48.20
69245;BME280;56357;52.304;4.870;2022-08-01T11:50:40;102195.22;;;26.58;47.72
69245;BME280;56357;52.304;4.870;2022-08-01T11:53:07;102195.47;;;26.62;47.38
69245;BME280;56357;52.304;4.870;2022-08-01T11:55:34;102191.97;;;26.70;46.88
69245;BME280;56357;52.304;4.870;2022-08-01T11:58:03;102202.28;;;26.61;47.32
69245;BME280;56357;52.304;4.870;2022-08-01T12:00:30;102204.69;;;26.72;47.82
69245;BME280;56357;52.304;4.870;2022-08-01T12:05:25;102197.88;;;26.73;46.80
69245;BME280;56357;52.304;4.870;2022-08-01T12:07:53;102199.97;;;26.63;47.20
69245;BME280;56357;52.304;4.870;2022-08-01T12:10:22;102194.81;;;26.70;46.55
69245;BME280;56357;52.304;4.870;2022-08-01T12:12:58;102200.19;;;26.71;47.24
69245;BME280;56357;52.304;4.870;2022-08-01T12:15:37;102202.00;;;26.62;46.64
69245;BME280;56357;52.304;4.870;2022-08-01T12:18:05;102197.84;;;26.55;47.49
69245;BME280;56357;52.304;4.870;2022-08-01T12:20:35;102211.13;;;26.59;47.05
69245;BME280;56357;52.304;4.870;2022-08-01T12:23:04;102205.19;;;26.56;46.44
69245;BME280;56357;52.304;4.870;2022-08-01T12:25:31;102202.59;;;26.59;46.24
69245;BME280;56357;52.304;4.870;2022-08-01T12:28:02;102212.31;;;26.77;47.26
69245;BME280;56357;52.304;4.870;2022-08-01T12:30:29;102208.44;;;26.68;46.83
69245;BME280;56357;52.304;4.870;2022-08-01T12:33:00;102210.69;;;26.71;47.08
69245;BME280;56357;52.304;4.870;2022-08-01T12:35:28;102209.34;;;26.63;47.50
69245;BME280;56357;52.304;4.870;2022-08-01T12:37:58;102215.16;;;26.53;47.67
69245;BME280;56357;52.304;4.870;2022-08-01T12:40:32;102208.03;;;26.56;46.92
69245;BME280;56357;52.304;4.870;2022-08-01T12:43:02;102206.06;;;26.56;47.92
69245;BME280;56357;52.304;4.870;2022-08-01T12:45:41;102207.03;;;26.70;49.57
69245;BME280;56357;52.304;4.870;2022-08-01T12:48:10;102212.63;;;26.75;48.50
69245;BME280;56357;52.304;4.870;2022-08-01T12:50:39;102201.72;;;26.82;47.11
69245;BME280;56357;52.304;4.870;2022-08-01T12:53:08;102195.09;;;26.68;47.48
69245;BME280;56357;52.304;4.870;2022-08-01T12:55:47;102214.31;;;26.76;47.48
69245;BME280;56357;52.304;4.870;2022-08-01T12:58:15;102209.25;;;26.73;46.83
69245;BME280;56357;52.304;4.870;2022-08-01T13:00:44;102206.19;;;26.65;45.66
69245;BME280;56357;52.304;4.870;2022-08-01T13:03:13;102214.19;;;26.63;45.95
69245;BME280;56357;52.304;4.870;2022-08-01T13:08:15;102205.88;;;26.71;45.51
69245;BME280;56357;52.304;4.870;2022-08-01T13:10:42;102204.19;;;26.70;46.21
69245;BME280;56357;52.304;4.870;2022-08-01T13:13:09;102201.38;;;26.65;45.56
69245;BME280;56357;52.304;4.870;2022-08-01T13:15:38;102205.25;;;26.74;44.96
69245;BME280;56357;52.304;4.870;2022-08-01T13:18:25;102203.56;;;26.73;44.92
69245;BME280;56357;52.304;4.870;2022-08-01T13:23:37;102203.56;;;26.73;44.57
69245;BME280;56357;52.304;4.870;2022-08-01T13:26:04;102203.06;;;26.66;45.35
69245;BME280;56357;52.304;4.870;2022-08-01T13:28:31;102195.03;;;26.73;46.17
69245;BME280;56357;52.304;4.870;2022-08-01T13:30:59;102197.03;;;26.91;49.05
69245;BME280;56357;52.304;4.870;2022-08-01T13:33:47;102194.66;;;26.80;46.02
69245;BME280;56357;52.304;4.870;2022-08-01T13:36:14;102190.03;;;26.84;47.31